createdAt,value
2019-02-22T00:00:09.142Z,10.10
2019-02-22T00:02:40.676Z,10.10
2019-02-22T00:05:10.800Z,10.20
2019-02-22T00:07:40.344Z,10.20
2019-02-22T00:10:10.241Z,10.20
2019-02-22T00:12:40.057Z,10.20
2019-02-22T00:15:09.675Z,10.20
2019-02-22T00:17:39.585Z,10.20
2019-02-22T00:20:09.123Z,10.20
2019-02-22T00:22:38.969Z,10.10
2019-02-22T00:25:08.681Z,10.10
2019-02-22T00:27:38.560Z,10.10
2019-02-22T00:30:08.476Z,10.10
2019-02-22T00:32:38.252Z,10.00
2019-02-22T00:35:08.382Z,10.00
2019-02-22T00:37:37.950Z,10.00
2019-02-22T00:42:55.097Z,10.00
2019-02-22T00:45:24.793Z,9.90
2019-02-22T00:47:54.590Z,9.90
2019-02-22T00:50:24.121Z,9.90
2019-02-22T00:52:53.672Z,9.80
2019-02-22T00:55:23.284Z,9.90
2019-02-22T00:57:53.121Z,9.80
2019-02-22T01:00:22.680Z,9.80
2019-02-22T01:03:10.773Z,9.80
2019-02-22T01:05:40.686Z,9.80
2019-02-22T01:08:10.633Z,9.80
2019-02-22T01:10:40.692Z,9.70
2019-02-22T01:13:10.251Z,9.70
2019-02-22T01:15:39.845Z,9.70
2019-02-22T01:18:09.830Z,9.70
2019-02-22T01:20:39.757Z,9.70
2019-02-22T01:23:21.628Z,9.70
2019-02-22T01:25:51.173Z,9.70
2019-02-22T01:28:20.705Z,9.70
2019-02-22T01:30:50.270Z,9.80
2019-02-22T01:33:20.060Z,9.80
2019-02-22T01:35:49.613Z,9.80
2019-02-22T01:38:19.165Z,9.80
2019-02-22T01:40:48.702Z,9.80
2019-02-22T01:43:18.888Z,9.70
2019-02-22T01:45:48.515Z,9.60
2019-02-22T01:48:18.042Z,9.60
2019-02-22T01:50:47.576Z,9.70
2019-02-22T01:53:17.101Z,9.70
2019-02-22T01:55:46.641Z,9.70
2019-02-22T01:58:16.484Z,9.70
2019-02-22T02:00:46.104Z,9.70
2019-02-22T02:03:15.640Z,9.70
2019-02-22T02:05:45.184Z,9.80
2019-02-22T02:08:15.047Z,9.70
2019-02-22T02:10:53.835Z,9.70
2019-02-22T02:13:16.261Z,9.70
2019-02-22T02:15:45.792Z,9.70
2019-02-22T02:18:15.954Z,9.70
2019-02-22T02:20:45.533Z,9.70
2019-02-22T02:23:15.191Z,9.60
2019-02-22T02:25:45.073Z,9.60
2019-02-22T02:28:14.621Z,9.60
2019-02-22T02:30:44.482Z,9.60
2019-02-22T02:33:14.029Z,9.60
2019-02-22T02:35:43.576Z,9.60
2019-02-22T02:38:13.110Z,9.60
2019-02-22T02:40:42.657Z,9.60
2019-02-22T02:43:12.224Z,9.60
2019-02-22T02:45:41.752Z,9.60
2019-02-22T02:48:11.289Z,9.60
2019-02-22T02:51:27.822Z,9.60
2019-02-22T02:53:57.636Z,9.60
2019-02-22T02:56:27.160Z,9.60
2019-02-22T02:58:57.068Z,9.60
2019-02-22T03:01:26.856Z,9.60
2019-02-22T03:03:57.001Z,9.60
2019-02-22T03:06:34.537Z,9.60
2019-02-22T03:09:04.578Z,9.60
2019-02-22T03:11:34.502Z,9.50
2019-02-22T03:14:04.127Z,9.50
2019-02-22T03:16:34.022Z,9.50
2019-02-22T03:19:03.543Z,9.50
2019-02-22T03:21:33.106Z,9.50
2019-02-22T03:24:02.943Z,9.50
2019-02-22T03:26:32.485Z,9.50
2019-02-22T03:29:02.044Z,9.50
2019-02-22T03:31:31.576Z,9.50
2019-02-22T03:34:01.389Z,9.50
2019-02-22T03:36:31.194Z,9.60
2019-02-22T03:39:00.802Z,9.60
2019-02-22T03:41:33.247Z,9.60
2019-02-22T03:44:01.850Z,9.60
2019-02-22T03:46:31.650Z,9.60
2019-02-22T03:49:01.463Z,9.60
2019-02-22T03:51:31.276Z,9.60
2019-02-22T03:54:02.386Z,9.60
2019-02-22T03:56:37.933Z,9.70
2019-02-22T03:59:07.562Z,9.70
2019-02-22T04:01:37.177Z,9.70
2019-02-22T04:04:06.784Z,9.70
2019-02-22T04:06:36.332Z,9.70
2019-02-22T04:09:10.529Z,9.70
2019-02-22T04:11:45.478Z,9.70
2019-02-22T04:14:11.608Z,9.70
2019-02-22T04:16:41.148Z,9.70
2019-02-22T04:19:11.044Z,9.70
2019-02-22T04:21:40.586Z,9.70
2019-02-22T04:24:10.123Z,9.70
2019-02-22T04:26:39.667Z,9.70
2019-02-22T04:29:09.220Z,9.70
2019-02-22T04:31:38.770Z,9.80
2019-02-22T04:34:08.610Z,9.80
2019-02-22T04:36:38.341Z,9.80
2019-02-22T04:39:08.149Z,9.90
2019-02-22T04:41:38.045Z,9.90
2019-02-22T04:44:08.171Z,9.90
2019-02-22T04:46:37.694Z,9.90
2019-02-22T04:49:07.893Z,9.90
2019-02-22T04:51:37.436Z,9.90
2019-02-22T04:54:07.301Z,9.90
2019-02-22T04:56:36.845Z,9.90
2019-02-22T04:59:06.728Z,9.90
2019-02-22T05:01:36.261Z,9.90
2019-02-22T05:04:05.805Z,9.90
2019-02-22T05:06:35.358Z,9.90
2019-02-22T05:09:06.101Z,9.90
2019-02-22T05:11:35.925Z,9.90
2019-02-22T05:14:05.480Z,10.00
2019-02-22T05:16:35.024Z,10.00
2019-02-22T05:19:04.569Z,9.90
2019-02-22T05:21:34.124Z,9.90
2019-02-22T05:24:04.317Z,10.00
2019-02-22T05:26:33.880Z,10.00
2019-02-22T05:29:03.738Z,10.00
2019-02-22T05:31:59.475Z,10.00
2019-02-22T05:34:29.577Z,10.00
2019-02-22T05:36:59.120Z,10.00
2019-02-22T05:39:28.661Z,10.00
2019-02-22T05:41:58.207Z,10.00
2019-02-22T05:44:27.762Z,10.10
2019-02-22T05:47:00.547Z,10.00
2019-02-22T05:49:28.769Z,10.10
2019-02-22T05:51:58.370Z,10.00
2019-02-22T05:54:27.922Z,10.00
2019-02-22T05:56:57.458Z,10.00
2019-02-22T05:59:26.993Z,10.10
2019-02-22T06:01:56.550Z,10.00
2019-02-22T06:04:26.385Z,10.00
2019-02-22T06:06:55.923Z,10.00
2019-02-22T06:09:25.501Z,10.00
2019-02-22T06:11:55.304Z,10.00
2019-02-22T06:14:24.849Z,10.00
2019-02-22T06:16:54.395Z,10.00
2019-02-22T06:19:23.948Z,10.00
2019-02-22T06:21:53.760Z,10.00
2019-02-22T06:24:23.950Z,10.00
2019-02-22T06:26:53.559Z,10.00
2019-02-22T06:29:23.108Z,10.00
2019-02-22T06:31:52.644Z,9.90
2019-02-22T06:34:22.518Z,10.00
2019-02-22T06:37:01.127Z,9.90
2019-02-22T06:39:23.942Z,9.90
2019-02-22T06:41:53.756Z,10.00
2019-02-22T06:44:23.320Z,10.00
2019-02-22T06:46:53.172Z,10.00
2019-02-22T06:49:22.701Z,10.00
2019-02-22T06:51:52.256Z,10.00
2019-02-22T06:54:21.785Z,10.00
2019-02-22T06:56:51.324Z,10.00
2019-02-22T06:59:21.125Z,10.00
2019-02-22T07:02:02.969Z,10.00
2019-02-22T07:04:32.516Z,10.10
2019-02-22T07:07:02.612Z,10.10
2019-02-22T07:09:32.165Z,10.10
2019-02-22T07:12:05.726Z,10.00
2019-02-22T07:14:35.284Z,10.10
2019-02-22T07:17:15.725Z,10.10
2019-02-22T07:19:45.274Z,10.10
2019-02-22T07:22:15.409Z,10.20
2019-02-22T07:24:45.604Z,10.20
2019-02-22T07:27:15.149Z,10.20
2019-02-22T07:29:45.045Z,10.20
2019-02-22T07:32:14.575Z,10.20
2019-02-22T07:34:44.110Z,10.30
2019-02-22T07:37:13.974Z,10.20
2019-02-22T07:39:44.088Z,10.30
2019-02-22T07:42:14.001Z,10.20
2019-02-22T07:44:47.071Z,10.30
2019-02-22T07:47:17.657Z,10.30
2019-02-22T07:49:47.394Z,10.40
2019-02-22T07:52:35.891Z,10.40
2019-02-22T07:55:06.281Z,10.60
2019-02-22T07:57:36.420Z,10.70
2019-02-22T08:00:08.622Z,10.70
2019-02-22T08:02:38.733Z,10.80
2019-02-22T08:05:09.379Z,10.90
2019-02-22T08:07:39.565Z,11.00
2019-02-22T08:10:09.541Z,11.00
2019-02-22T08:12:39.372Z,11.10
2019-02-22T08:15:09.911Z,11.10
2019-02-22T08:17:39.465Z,11.10
2019-02-22T08:20:09.316Z,11.00
2019-02-22T08:22:39.132Z,11.00
2019-02-22T08:25:08.680Z,10.80
2019-02-22T08:27:40.338Z,10.80
2019-02-22T08:30:10.305Z,10.80
2019-02-22T08:32:40.988Z,10.80
2019-02-22T08:35:14.038Z,10.90
2019-02-22T08:37:44.485Z,10.90
2019-02-22T08:40:14.365Z,10.90
2019-02-22T08:42:44.585Z,11.00
2019-02-22T08:45:14.541Z,11.00
2019-02-22T08:47:44.479Z,11.10
2019-02-22T08:50:32.905Z,11.20
2019-02-22T08:53:02.769Z,11.20
2019-02-22T08:55:32.320Z,11.30
2019-02-22T08:58:01.860Z,11.30
2019-02-22T09:01:05.047Z,11.30
2019-02-22T09:03:34.649Z,11.40
2019-02-22T09:06:04.648Z,11.40
2019-02-22T09:08:34.176Z,11.40
2019-02-22T09:11:04.420Z,11.40
2019-02-22T09:13:49.512Z,11.40
2019-02-22T09:16:19.044Z,11.50
2019-02-22T09:18:48.574Z,11.40
2019-02-22T09:21:18.200Z,11.40
2019-02-22T09:23:48.056Z,11.40
2019-02-22T09:26:17.632Z,11.40
2019-02-22T09:28:51.300Z,11.40
2019-02-22T09:31:20.831Z,11.50
2019-02-22T09:33:50.603Z,11.50
2019-02-22T09:36:20.761Z,11.50
2019-02-22T09:38:50.289Z,11.50
2019-02-22T09:41:20.072Z,11.50
2019-02-22T09:43:55.006Z,11.50
2019-02-22T09:46:20.850Z,11.40
2019-02-22T09:48:50.379Z,11.40
2019-02-22T09:51:20.204Z,11.30
2019-02-22T09:53:49.820Z,11.30
2019-02-22T09:56:19.653Z,11.30
2019-02-22T09:58:49.466Z,11.40
2019-02-22T10:01:19.076Z,11.40
2019-02-22T10:03:48.841Z,11.50
2019-02-22T10:06:18.368Z,11.50
2019-02-22T10:08:47.922Z,11.60
2019-02-22T10:11:17.692Z,11.60
2019-02-22T10:13:47.513Z,11.70
2019-02-22T10:16:17.061Z,11.80
2019-02-22T10:18:47.236Z,11.90
2019-02-22T10:21:16.760Z,11.90
2019-02-22T10:23:46.659Z,11.90
2019-02-22T10:26:16.225Z,11.90
2019-02-22T10:28:45.752Z,12.00
2019-02-22T10:31:16.084Z,12.00
2019-02-22T10:33:45.629Z,12.00
2019-02-22T10:36:15.173Z,12.00
2019-02-22T10:38:45.009Z,11.90
2019-02-22T10:41:21.161Z,11.80
2019-02-22T10:43:50.724Z,11.70
2019-02-22T10:46:22.219Z,11.60
2019-02-22T10:48:51.915Z,11.60
2019-02-22T10:51:21.460Z,11.50
2019-02-22T10:53:51.270Z,11.50
2019-02-22T10:56:20.773Z,11.50
2019-02-22T10:58:50.492Z,11.50
2019-02-22T11:01:20.269Z,11.50
2019-02-22T11:03:50.185Z,11.50
2019-02-22T11:06:19.744Z,11.50
2019-02-22T11:08:49.908Z,11.50
2019-02-22T11:11:19.444Z,11.50
2019-02-22T11:13:49.069Z,11.50
2019-02-22T11:16:18.608Z,11.50
2019-02-22T11:18:48.437Z,11.40
2019-02-22T11:21:17.971Z,11.40
2019-02-22T11:23:47.856Z,11.40
2019-02-22T11:26:17.720Z,11.50
2019-02-22T11:28:47.576Z,11.40
2019-02-22T11:31:17.456Z,11.40
2019-02-22T11:33:47.400Z,11.40
2019-02-22T11:36:17.312Z,11.40
2019-02-22T11:38:47.546Z,11.40
2019-02-22T11:41:17.356Z,11.40
2019-02-22T11:43:47.161Z,11.40
2019-02-22T11:46:16.720Z,11.40
2019-02-22T11:48:46.282Z,11.30
2019-02-22T11:51:15.836Z,11.30
2019-02-22T11:53:45.468Z,11.30
2019-02-22T11:56:15.397Z,11.20
2019-02-22T11:58:45.347Z,11.20
2019-02-22T12:01:15.082Z,11.20
2019-02-22T12:03:44.985Z,11.30
2019-02-22T12:06:14.536Z,11.30
2019-02-22T12:08:44.350Z,11.40
2019-02-22T12:11:14.292Z,11.50
2019-02-22T12:13:44.492Z,11.50
2019-02-22T12:16:14.025Z,11.60
2019-02-22T12:18:43.962Z,11.70
2019-02-22T12:21:13.525Z,11.80
2019-02-22T12:23:43.626Z,11.80
2019-02-22T12:26:13.745Z,11.80
2019-02-22T12:28:44.994Z,11.80
2019-02-22T12:31:14.800Z,11.80
2019-02-22T12:33:44.327Z,11.80
2019-02-22T12:36:14.225Z,11.80
2019-02-22T12:38:43.956Z,11.80
2019-02-22T12:41:13.485Z,11.80
2019-02-22T12:43:43.013Z,11.80
2019-02-22T12:46:12.908Z,11.80
2019-02-22T12:48:59.960Z,11.80
2019-02-22T12:51:29.977Z,11.80
2019-02-22T12:53:59.506Z,11.80
2019-02-22T12:56:55.781Z,11.70
2019-02-22T12:59:00.643Z,11.80
2019-02-22T13:01:51.740Z,11.80
2019-02-22T13:04:21.560Z,11.80
2019-02-22T13:06:51.097Z,11.80
2019-02-22T13:09:20.625Z,11.90
2019-02-22T13:11:50.176Z,11.90
2019-02-22T13:14:19.989Z,11.90
2019-02-22T13:17:17.212Z,12.00
2019-02-22T13:19:47.116Z,12.00
2019-02-22T13:22:16.648Z,12.10
2019-02-22T13:24:46.475Z,12.10
2019-02-22T13:27:16.337Z,12.20
2019-02-22T13:29:46.506Z,12.20
2019-02-22T13:32:16.332Z,12.20
2019-02-22T13:34:46.156Z,12.20
2019-02-22T13:37:15.746Z,12.10
2019-02-22T13:39:45.381Z,12.00
2019-02-22T13:42:15.086Z,12.00
2019-02-22T13:44:44.701Z,12.00
2019-02-22T13:47:14.869Z,12.00
2019-02-22T13:49:44.686Z,11.90
2019-02-22T13:52:14.588Z,11.90
2019-02-22T13:54:44.715Z,11.90
2019-02-22T13:57:14.933Z,11.90
2019-02-22T13:59:44.551Z,11.80
2019-02-22T14:02:14.199Z,11.80
2019-02-22T14:04:49.897Z,11.80
2019-02-22T14:07:19.937Z,11.80
2019-02-22T14:09:49.475Z,11.80
2019-02-22T14:12:19.023Z,11.80
2019-02-22T14:14:48.604Z,11.80
2019-02-22T14:17:18.137Z,11.80
2019-02-22T14:19:48.061Z,11.80
2019-02-22T14:22:17.684Z,11.80
2019-02-22T14:24:47.604Z,11.80
2019-02-22T14:27:17.557Z,11.80
2019-02-22T14:30:12.168Z,11.80
2019-02-22T14:32:41.729Z,11.80
2019-02-22T14:35:11.589Z,11.70
2019-02-22T14:37:41.452Z,11.70
2019-02-22T14:40:11.448Z,11.70
2019-02-22T14:42:41.156Z,11.60
2019-02-22T14:45:11.141Z,11.60
2019-02-22T14:47:41.671Z,11.70
2019-02-22T14:50:13.048Z,11.70
2019-02-22T14:52:43.134Z,11.70
2019-02-22T14:55:13.120Z,11.70
2019-02-22T14:57:45.094Z,11.70
2019-02-22T15:00:16.147Z,11.70
2019-02-22T15:03:11.153Z,11.70
2019-02-22T15:05:41.173Z,11.80
2019-02-22T15:08:10.732Z,11.80
2019-02-22T15:10:40.264Z,11.70
2019-02-22T15:13:12.632Z,11.60
2019-02-22T15:16:09.597Z,11.60
2019-02-22T15:18:39.137Z,11.50
2019-02-22T15:21:08.668Z,11.50
2019-02-22T15:23:38.890Z,11.50
2019-02-22T15:26:08.480Z,11.40
2019-02-22T15:28:38.053Z,11.40
2019-02-22T15:31:07.949Z,11.40
2019-02-22T15:33:37.761Z,11.40
2019-02-22T15:36:08.112Z,11.40
2019-02-22T15:38:38.114Z,11.30
2019-02-22T15:41:30.037Z,11.30
2019-02-22T15:43:59.642Z,11.30
2019-02-22T15:46:29.788Z,11.30
2019-02-22T15:48:59.292Z,11.30
2019-02-22T15:51:29.825Z,11.30
2019-02-22T15:53:59.371Z,11.20
2019-02-22T15:56:28.897Z,11.20
2019-02-22T15:58:58.709Z,11.20
2019-02-22T16:01:28.228Z,11.10
2019-02-22T16:04:11.823Z,11.10
2019-02-22T16:06:41.660Z,11.10
2019-02-22T16:09:11.675Z,11.10
2019-02-22T16:11:52.397Z,11.10
2019-02-22T16:14:22.660Z,11.10
2019-02-22T16:16:52.265Z,11.00
2019-02-22T16:19:21.822Z,11.00
2019-02-22T16:22:18.604Z,11.00
2019-02-22T16:24:48.425Z,11.00
2019-02-22T16:27:18.240Z,11.00
2019-02-22T16:29:47.853Z,11.00
2019-02-22T16:32:33.224Z,10.90
2019-02-22T16:35:02.780Z,10.90
2019-02-22T16:37:32.641Z,10.90
2019-02-22T16:40:02.166Z,10.90
2019-02-22T16:42:31.977Z,10.90
2019-02-22T16:45:01.516Z,10.90
2019-02-22T16:47:39.535Z,10.80
2019-02-22T16:50:02.626Z,10.80
2019-02-22T16:52:32.422Z,10.80
2019-02-22T16:55:02.236Z,10.80
2019-02-22T16:57:31.808Z,10.80
2019-02-22T17:00:01.653Z,10.80
2019-02-22T17:02:31.190Z,10.80
2019-02-22T17:05:00.740Z,10.80
2019-02-22T17:07:31.189Z,10.80
2019-02-22T17:10:01.001Z,10.80
2019-02-22T17:12:30.791Z,10.70
2019-02-22T17:15:10.590Z,10.70
2019-02-22T17:17:40.217Z,10.70
2019-02-22T17:20:10.716Z,10.60
2019-02-22T17:22:40.602Z,10.60
2019-02-22T17:25:12.103Z,10.50
2019-02-22T17:27:42.989Z,10.50
2019-02-22T17:30:14.048Z,10.50
2019-02-22T17:32:43.865Z,10.40
2019-02-22T17:35:13.469Z,10.40
2019-02-22T17:37:58.616Z,10.40
2019-02-22T17:40:28.292Z,10.40
2019-02-22T17:42:57.901Z,10.30
2019-02-22T17:45:28.111Z,10.20
2019-02-22T17:47:57.969Z,10.10
2019-02-22T17:50:28.083Z,10.00
2019-02-22T17:52:57.614Z,10.00
2019-02-22T17:55:33.112Z,9.90
2019-02-22T17:58:02.941Z,9.80
2019-02-22T18:00:32.484Z,9.80
2019-02-22T18:03:02.344Z,9.70
2019-02-22T18:05:32.476Z,9.60
2019-02-22T18:08:02.665Z,9.50
2019-02-22T18:10:32.276Z,9.50
2019-02-22T18:13:01.809Z,9.40
2019-02-22T18:15:31.621Z,9.30
2019-02-22T18:18:01.165Z,9.30
2019-02-22T18:20:31.236Z,9.20
2019-02-22T18:23:01.053Z,9.10
2019-02-22T18:25:30.578Z,9.00
2019-02-22T18:28:00.184Z,9.00
2019-02-22T18:30:29.893Z,9.00
2019-02-22T18:32:59.989Z,8.90
2019-02-22T18:35:29.801Z,8.90
2019-02-22T18:37:59.751Z,8.90
2019-02-22T18:40:29.521Z,8.80
2019-02-22T18:42:59.328Z,8.80
2019-02-22T18:45:30.483Z,8.80
2019-02-22T18:48:00.389Z,8.80
2019-02-22T18:50:30.745Z,8.80
2019-02-22T18:53:00.293Z,8.80
2019-02-22T18:55:49.591Z,8.70
2019-02-22T18:58:11.217Z,8.60
2019-02-22T19:00:40.744Z,8.50
2019-02-22T19:03:10.650Z,8.40
2019-02-22T19:05:41.249Z,8.40
2019-02-22T19:08:11.365Z,8.40
2019-02-22T19:10:41.285Z,8.30
2019-02-22T19:13:10.850Z,8.30
2019-02-22T19:15:40.676Z,8.20
2019-02-22T19:18:10.720Z,8.20
2019-02-22T19:20:41.256Z,8.10
2019-02-22T19:23:11.384Z,8.10
2019-02-22T19:25:41.173Z,8.00
2019-02-22T19:28:10.704Z,8.10
2019-02-22T19:30:40.276Z,8.10
2019-02-22T19:33:10.140Z,8.10
2019-02-22T19:35:42.943Z,8.00
2019-02-22T19:38:12.501Z,8.00
2019-02-22T19:40:42.066Z,8.00
2019-02-22T19:43:12.040Z,8.00
2019-02-22T19:45:41.813Z,8.00
2019-02-22T19:48:11.627Z,7.90
2019-02-22T19:50:41.840Z,7.90
2019-02-22T19:53:11.520Z,7.80
2019-02-22T19:55:41.674Z,7.80
2019-02-22T19:58:11.590Z,7.80
2019-02-22T20:00:41.436Z,7.80
2019-02-22T20:03:11.030Z,7.80
2019-02-22T20:05:40.821Z,7.80
2019-02-22T20:08:10.376Z,7.80
2019-02-22T20:10:40.132Z,7.80
2019-02-22T20:13:09.941Z,7.80
2019-02-22T20:15:39.503Z,7.70
2019-02-22T20:18:09.724Z,7.70
2019-02-22T20:20:39.264Z,7.60
2019-02-22T20:23:09.081Z,7.50
2019-02-22T20:25:38.688Z,7.50
2019-02-22T20:28:08.813Z,7.50
2019-02-22T20:30:39.228Z,7.50
2019-02-22T20:33:08.777Z,7.50
2019-02-22T20:35:38.548Z,7.50
2019-02-22T20:38:08.109Z,7.50
2019-02-22T20:40:38.067Z,7.50
2019-02-22T20:43:07.709Z,7.50
2019-02-22T20:45:37.252Z,7.40
2019-02-22T20:48:06.812Z,7.40
2019-02-22T20:50:36.702Z,7.40
2019-02-22T20:53:06.590Z,7.40
2019-02-22T20:55:36.620Z,7.40
2019-02-22T20:58:06.557Z,7.40
2019-02-22T21:00:36.449Z,7.40
2019-02-22T21:03:06.635Z,7.40
2019-02-22T21:05:36.689Z,7.40
2019-02-22T21:08:06.504Z,7.40
2019-02-22T21:10:36.065Z,7.40
2019-02-22T21:13:05.589Z,7.40
2019-02-22T21:15:35.112Z,7.50
2019-02-22T21:18:15.598Z,7.50
2019-02-22T21:20:36.381Z,7.50
2019-02-22T21:23:05.952Z,7.40
2019-02-22T21:25:35.735Z,7.30
2019-02-22T21:28:05.567Z,7.20
2019-02-22T21:30:35.377Z,7.20
2019-02-22T21:33:05.314Z,7.20
2019-02-22T21:35:34.842Z,7.20
2019-02-22T21:38:04.516Z,7.30
2019-02-22T21:40:34.067Z,7.30
2019-02-22T21:43:03.596Z,7.30
2019-02-22T21:45:39.766Z,7.40
2019-02-22T21:48:09.625Z,7.40
2019-02-22T21:50:39.433Z,7.40
2019-02-22T21:53:09.249Z,7.40
2019-02-22T21:55:38.808Z,7.30
2019-02-22T21:58:10.368Z,7.30
2019-02-22T22:00:39.975Z,7.30
2019-02-22T22:03:09.524Z,7.30
2019-02-22T22:05:39.336Z,7.20
2019-02-22T22:08:09.133Z,7.20
2019-02-22T22:10:39.751Z,7.10
2019-02-22T22:13:09.556Z,7.10
2019-02-22T22:15:39.080Z,7.10
2019-02-22T22:18:08.604Z,7.00
2019-02-22T22:20:38.452Z,7.00
2019-02-22T22:23:08.304Z,7.00
2019-02-22T22:25:38.114Z,6.90
2019-02-22T22:28:07.660Z,6.90
2019-02-22T22:30:37.428Z,6.80
2019-02-22T22:33:07.554Z,6.80
2019-02-22T22:35:37.281Z,6.70
2019-02-22T22:38:07.062Z,6.70
2019-02-22T22:40:53.416Z,6.60
2019-02-22T22:43:23.364Z,6.60
2019-02-22T22:45:52.883Z,6.50
2019-02-22T22:48:22.424Z,6.50
2019-02-22T22:50:52.224Z,6.50
2019-02-22T22:53:21.913Z,6.40
2019-02-22T22:55:51.460Z,6.40
2019-02-22T22:58:20.984Z,6.30
2019-02-22T23:01:18.088Z,6.30
2019-02-22T23:03:47.885Z,6.20
2019-02-22T23:06:18.152Z,6.20
2019-02-22T23:08:47.771Z,6.10
2019-02-22T23:11:17.297Z,6.10
2019-02-22T23:13:46.821Z,6.10
2019-02-22T23:16:16.580Z,6.00
2019-02-22T23:18:46.108Z,6.00
2019-02-22T23:21:15.637Z,5.90
2019-02-22T23:23:45.445Z,5.90
2019-02-22T23:26:15.052Z,5.90
2019-02-22T23:28:44.583Z,5.80
2019-02-22T23:31:14.112Z,5.80
2019-02-22T23:33:43.637Z,5.80
2019-02-22T23:36:13.501Z,5.80
2019-02-22T23:38:43.033Z,5.80
2019-02-22T23:41:12.892Z,5.80
2019-02-22T23:43:42.512Z,5.70
2019-02-22T23:46:22.241Z,5.70
2019-02-22T23:48:52.054Z,5.70
2019-02-22T23:51:21.873Z,5.70
2019-02-22T23:53:51.411Z,5.60
2019-02-22T23:56:20.940Z,5.60
2019-02-22T23:58:50.465Z,5.50
